sensor_id;sensor_type;location;lat;lon;timestamp;temperature;humidity
42333;DHT22;27984;51.476;5.702;2023-02-19T00:01:38;10.70;99.90
42333;DHT22;27984;51.476;5.702;2023-02-19T00:04:05;10.70;99.90
42333;DHT22;27984;51.476;5.702;2023-02-19T00:06:32;10.70;99.90
42333;DHT22;27984;51.476;5.702;2023-02-19T00:08:57;10.70;99.90
42333;DHT22;27984;51.476;5.702;2023-02-19T00:11:24;10.70;99.90
42333;DHT22;27984;51.476;5.702;2023-02-19T00:13:51;10.70;99.90
42333;DHT22;27984;51.476;5.702;2023-02-19T00:18:42;10.70;99.90
42333;DHT22;27984;51.476;5.702;2023-02-19T00:21:08;10.60;99.90
42333;DHT22;27984;51.476;5.702;2023-02-19T00:23:33;10.60;99.90
42333;DHT22;27984;51.476;5.702;2023-02-19T00:26:10;10.60;99.90
42333;DHT22;27984;51.476;5.702;2023-02-19T00:28:35;10.60;99.90
42333;DHT22;27984;51.476;5.702;2023-02-19T00:31:08;10.60;99.90
42333;DHT22;27984;51.476;5.702;2023-02-19T00:33:36;10.60;99.90
42333;DHT22;27984;51.476;5.702;2023-02-19T00:36:02;10.60;99.90
42333;DHT22;27984;51.476;5.702;2023-02-19T00:38:27;10.60;99.90
42333;DHT22;27984;51.476;5.702;2023-02-19T00:40:53;10.60;99.90
42333;DHT22;27984;51.476;5.702;2023-02-19T00:43:18;10.50;99.90
42333;DHT22;27984;51.476;5.702;2023-02-19T00:45:44;10.60;99.90
42333;DHT22;27984;51.476;5.702;2023-02-19T00:48:09;10.50;99.90
42333;DHT22;27984;51.476;5.702;2023-02-19T00:50:35;10.60;99.90
42333;DHT22;27984;51.476;5.702;2023-02-19T00:53:00;10.50;99.90
42333;DHT22;27984;51.476;5.702;2023-02-19T00:55:26;10.50;99.90
42333;DHT22;27984;51.476;5.702;2023-02-19T00:57:51;10.50;99.90
42333;DHT22;27984;51.476;5.702;2023-02-19T01:00:17;10.60;99.90
42333;DHT22;27984;51.476;5.702;2023-02-19T01:02:42;10.60;99.90
42333;DHT22;27984;51.476;5.702;2023-02-19T01:05:08;10.60;99.90
42333;DHT22;27984;51.476;5.702;2023-02-19T01:07:34;10.60;99.90
42333;DHT22;27984;51.476;5.702;2023-02-19T01:09:59;10.60;99.90
42333;DHT22;27984;51.476;5.702;2023-02-19T01:12:25;10.70;99.90
42333;DHT22;27984;51.476;5.702;2023-02-19T01:14:52;10.60;99.90
42333;DHT22;27984;51.476;5.702;2023-02-19T01:17:19;10.60;99.90
42333;DHT22;27984;51.476;5.702;2023-02-19T01:19:44;10.70;99.90
42333;DHT22;27984;51.476;5.702;2023-02-19T01:22:10;10.70;99.90
42333;DHT22;27984;51.476;5.702;2023-02-19T01:24:35;10.70;99.90
42333;DHT22;27984;51.476;5.702;2023-02-19T01:27:01;10.70;99.90
42333;DHT22;27984;51.476;5.702;2023-02-19T01:29:26;10.70;99.90
42333;DHT22;27984;51.476;5.702;2023-02-19T01:31:52;10.70;99.90
42333;DHT22;27984;51.476;5.702;2023-02-19T01:34:17;10.70;99.90
42333;DHT22;27984;51.476;5.702;2023-02-19T01:36:43;10.70;99.90
42333;DHT22;27984;51.476;5.702;2023-02-19T01:39:09;10.70;99.90
42333;DHT22;27984;51.476;5.702;2023-02-19T01:41:36;10.70;99.90
42333;DHT22;27984;51.476;5.702;2023-02-19T01:44:05;10.70;99.90
42333;DHT22;27984;51.476;5.702;2023-02-19T01:46:34;10.70;99.90
42333;DHT22;27984;51.476;5.702;2023-02-19T01:49:05;10.70;99.90
42333;DHT22;27984;51.476;5.702;2023-02-19T01:51:30;10.70;99.90
42333;DHT22;27984;51.476;5.702;2023-02-19T01:53:58;10.70;99.90
42333;DHT22;27984;51.476;5.702;2023-02-19T01:56:26;10.70;99.90
42333;DHT22;27984;51.476;5.702;2023-02-19T01:58:51;10.70;99.90
42333;DHT22;27984;51.476;5.702;2023-02-19T02:01:17;10.70;99.90
42333;DHT22;27984;51.476;5.702;2023-02-19T02:03:43;10.70;99.90
42333;DHT22;27984;51.476;5.702;2023-02-19T02:06:12;10.70;99.90
42333;DHT22;27984;51.476;5.702;2023-02-19T02:08:38;10.70;99.90
42333;DHT22;27984;51.476;5.702;2023-02-19T02:11:22;10.70;99.90
42333;DHT22;27984;51.476;5.702;2023-02-19T02:13:48;10.70;99.90
42333;DHT22;27984;51.476;5.702;2023-02-19T02:18:44;10.70;99.90
42333;DHT22;27984;51.476;5.702;2023-02-19T02:24:25;10.60;99.90
42333;DHT22;27984;51.476;5.702;2023-02-19T02:32:20;10.70;99.90
42333;DHT22;27984;51.476;5.702;2023-02-19T02:35:10;10.60;99.90
42333;DHT22;27984;51.476;5.702;2023-02-19T02:37:34;10.60;99.90
42333;DHT22;27984;51.476;5.702;2023-02-19T02:40:02;10.70;99.90
42333;DHT22;27984;51.476;5.702;2023-02-19T02:42:28;10.60;99.90
42333;DHT22;27984;51.476;5.702;2023-02-19T02:44:54;10.60;99.90
42333;DHT22;27984;51.476;5.702;2023-02-19T02:47:49;10.60;99.90
42333;DHT22;27984;51.476;5.702;2023-02-19T02:50:17;10.70;99.90
42333;DHT22;27984;51.476;5.702;2023-02-19T02:52:44;10.70;99.90
42333;DHT22;27984;51.476;5.702;2023-02-19T02:55:30;10.60;99.90
42333;DHT22;27984;51.476;5.702;2023-02-19T02:57:58;10.60;99.90
42333;DHT22;27984;51.476;5.702;2023-02-19T03:00:23;10.60;99.90
42333;DHT22;27984;51.476;5.702;2023-02-19T03:02:50;10.60;99.90
42333;DHT22;27984;51.476;5.702;2023-02-19T03:05:17;10.60;99.90
42333;DHT22;27984;51.476;5.702;2023-02-19T03:10:33;10.60;99.90
42333;DHT22;27984;51.476;5.702;2023-02-19T03:13:00;10.60;99.90
42333;DHT22;27984;51.476;5.702;2023-02-19T03:15:47;10.60;99.90
42333;DHT22;27984;51.476;5.702;2023-02-19T03:18:33;10.50;99.90
42333;DHT22;27984;51.476;5.702;2023-02-19T03:21:19;10.50;99.90
42333;DHT22;27984;51.476;5.702;2023-02-19T03:23:46;10.50;99.90
42333;DHT22;27984;51.476;5.702;2023-02-19T03:26:31;10.40;99.90
42333;DHT22;27984;51.476;5.702;2023-02-19T03:28:57;10.40;99.90
42333;DHT22;27984;51.476;5.702;2023-02-19T03:31:42;10.40;99.90
42333;DHT22;27984;51.476;5.702;2023-02-19T03:34:10;10.30;99.90
42333;DHT22;27984;51.476;5.702;2023-02-19T03:36:38;10.20;99.90
42333;DHT22;27984;51.476;5.702;2023-02-19T03:39:06;10.20;99.90
42333;DHT22;27984;51.476;5.702;2023-02-19T03:41:42;10.10;99.90
42333;DHT22;27984;51.476;5.702;2023-02-19T03:44:12;10.10;99.90
42333;DHT22;27984;51.476;5.702;2023-02-19T03:49:25;10.00;99.90
42333;DHT22;27984;51.476;5.702;2023-02-19T03:52:01;10.00;99.90
42333;DHT22;27984;51.476;5.702;2023-02-19T03:57:00;10.00;99.90
42333;DHT22;27984;51.476;5.702;2023-02-19T04:01:55;10.00;99.90
42333;DHT22;27984;51.476;5.702;2023-02-19T04:04:27;10.00;99.90
42333;DHT22;27984;51.476;5.702;2023-02-19T04:06:55;10.00;99.90
42333;DHT22;27984;51.476;5.702;2023-02-19T04:09:22;10.00;99.90
42333;DHT22;27984;51.476;5.702;2023-02-19T04:11:48;10.00;99.90
42333;DHT22;27984;51.476;5.702;2023-02-19T04:17:04;10.10;99.90
42333;DHT22;27984;51.476;5.702;2023-02-19T04:19:32;10.10;99.90
42333;DHT22;27984;51.476;5.702;2023-02-19T04:21:58;10.00;99.90
42333;DHT22;27984;51.476;5.702;2023-02-19T04:24:26;10.10;99.90
42333;DHT22;27984;51.476;5.702;2023-02-19T04:26:52;10.00;99.90
42333;DHT22;27984;51.476;5.702;2023-02-19T04:29:20;10.00;99.90
42333;DHT22;27984;51.476;5.702;2023-02-19T04:31:46;10.00;99.90
42333;DHT22;27984;51.476;5.702;2023-02-19T04:34:11;10.00;99.90
42333;DHT22;27984;51.476;5.702;2023-02-19T04:36:36;10.00;99.90
42333;DHT22;27984;51.476;5.702;2023-02-19T04:39:02;10.00;99.90
42333;DHT22;27984;51.476;5.702;2023-02-19T04:41:27;10.00;99.90
42333;DHT22;27984;51.476;5.702;2023-02-19T04:43:53;10.00;99.90
42333;DHT22;27984;51.476;5.702;2023-02-19T04:46:18;10.00;99.90
42333;DHT22;27984;51.476;5.702;2023-02-19T04:48:44;9.90;99.90
42333;DHT22;27984;51.476;5.702;2023-02-19T04:51:09;9.90;99.90
42333;DHT22;27984;51.476;5.702;2023-02-19T04:53:35;9.90;99.90
42333;DHT22;27984;51.476;5.702;2023-02-19T04:56:12;9.90;99.90
42333;DHT22;27984;51.476;5.702;2023-02-19T04:58:37;9.90;99.90
42333;DHT22;27984;51.476;5.702;2023-02-19T05:01:03;10.00;99.90
42333;DHT22;27984;51.476;5.702;2023-02-19T05:03:29;10.00;99.90
42333;DHT22;27984;51.476;5.702;2023-02-19T05:05:54;10.00;99.90
42333;DHT22;27984;51.476;5.702;2023-02-19T05:08:20;10.00;99.90
42333;DHT22;27984;51.476;5.702;2023-02-19T05:10:45;10.00;99.90
42333;DHT22;27984;51.476;5.702;2023-02-19T05:13:11;9.90;99.90
42333;DHT22;27984;51.476;5.702;2023-02-19T05:15:36;9.90;99.90
42333;DHT22;27984;51.476;5.702;2023-02-19T05:18:02;9.90;99.90
42333;DHT22;27984;51.476;5.702;2023-02-19T05:20:27;9.80;99.90
42333;DHT22;27984;51.476;5.702;2023-02-19T05:22:53;9.80;99.90
42333;DHT22;27984;51.476;5.702;2023-02-19T05:25:18;9.80;99.90
42333;DHT22;27984;51.476;5.702;2023-02-19T05:27:44;9.70;99.90
42333;DHT22;27984;51.476;5.702;2023-02-19T05:30:10;9.70;99.90
42333;DHT22;27984;51.476;5.702;2023-02-19T05:32:35;9.80;99.90
42333;DHT22;27984;51.476;5.702;2023-02-19T05:35:01;9.80;99.90
42333;DHT22;27984;51.476;5.702;2023-02-19T05:37:26;9.70;99.90
42333;DHT22;27984;51.476;5.702;2023-02-19T05:39:52;9.80;99.90
42333;DHT22;27984;51.476;5.702;2023-02-19T05:42:17;9.70;99.90
42333;DHT22;27984;51.476;5.702;2023-02-19T05:44:43;9.70;99.90
42333;DHT22;27984;51.476;5.702;2023-02-19T05:47:08;9.70;99.90
42333;DHT22;27984;51.476;5.702;2023-02-19T05:49:34;9.70;99.90
42333;DHT22;27984;51.476;5.702;2023-02-19T05:51:59;9.70;99.90
42333;DHT22;27984;51.476;5.702;2023-02-19T05:54:27;9.70;99.90
42333;DHT22;27984;51.476;5.702;2023-02-19T05:56:52;9.70;99.90
42333;DHT22;27984;51.476;5.702;2023-02-19T05:59:19;9.70;99.90
42333;DHT22;27984;51.476;5.702;2023-02-19T06:01:45;9.70;99.90
42333;DHT22;27984;51.476;5.702;2023-02-19T06:04:11;9.70;99.90
42333;DHT22;27984;51.476;5.702;2023-02-19T06:06:37;9.70;99.90
42333;DHT22;27984;51.476;5.702;2023-02-19T06:09:03;9.70;99.90
42333;DHT22;27984;51.476;5.702;2023-02-19T06:11:29;9.70;99.90
42333;DHT22;27984;51.476;5.702;2023-02-19T06:13:54;9.60;99.90
42333;DHT22;27984;51.476;5.702;2023-02-19T06:16:20;9.50;99.90
42333;DHT22;27984;51.476;5.702;2023-02-19T06:18:46;9.50;99.90
42333;DHT22;27984;51.476;5.702;2023-02-19T06:21:12;9.50;99.90
42333;DHT22;27984;51.476;5.702;2023-02-19T06:23:38;9.40;99.90
42333;DHT22;27984;51.476;5.702;2023-02-19T06:26:10;9.50;99.90
42333;DHT22;27984;51.476;5.702;2023-02-19T06:28:36;9.40;99.90
42333;DHT22;27984;51.476;5.702;2023-02-19T06:31:02;9.40;99.90
42333;DHT22;27984;51.476;5.702;2023-02-19T06:33:27;9.40;99.90
42333;DHT22;27984;51.476;5.702;2023-02-19T06:35:53;9.40;99.90
42333;DHT22;27984;51.476;5.702;2023-02-19T06:38:21;9.40;99.90
42333;DHT22;27984;51.476;5.702;2023-02-19T06:40:47;9.30;99.90
42333;DHT22;27984;51.476;5.702;2023-02-19T06:43:12;9.40;99.90
42333;DHT22;27984;51.476;5.702;2023-02-19T06:45:38;9.30;99.90
42333;DHT22;27984;51.476;5.702;2023-02-19T06:48:03;9.30;99.90
42333;DHT22;27984;51.476;5.702;2023-02-19T06:50:29;9.30;99.90
42333;DHT22;27984;51.476;5.702;2023-02-19T06:52:55;9.40;99.90
42333;DHT22;27984;51.476;5.702;2023-02-19T06:55:20;9.40;99.90
42333;DHT22;27984;51.476;5.702;2023-02-19T06:57:46;9.40;99.90
42333;DHT22;27984;51.476;5.702;2023-02-19T07:00:11;9.40;99.90
42333;DHT22;27984;51.476;5.702;2023-02-19T07:02:37;9.40;99.90
42333;DHT22;27984;51.476;5.702;2023-02-19T07:05:02;9.40;99.90
42333;DHT22;27984;51.476;5.702;2023-02-19T07:07:28;9.40;99.90
42333;DHT22;27984;51.476;5.702;2023-02-19T07:09:53;9.40;99.90
42333;DHT22;27984;51.476;5.702;2023-02-19T07:12:19;9.40;99.90
42333;DHT22;27984;51.476;5.702;2023-02-19T07:14:44;9.40;99.90
42333;DHT22;27984;51.476;5.702;2023-02-19T07:17:09;9.40;99.90
42333;DHT22;27984;51.476;5.702;2023-02-19T07:19:35;9.40;99.90
42333;DHT22;27984;51.476;5.702;2023-02-19T07:22:00;9.40;99.90
42333;DHT22;27984;51.476;5.702;2023-02-19T07:24:26;9.50;99.90
42333;DHT22;27984;51.476;5.702;2023-02-19T07:26:51;9.60;99.90
42333;DHT22;27984;51.476;5.702;2023-02-19T07:29:17;9.60;99.90
42333;DHT22;27984;51.476;5.702;2023-02-19T07:31:42;9.60;99.90
42333;DHT22;27984;51.476;5.702;2023-02-19T07:34:08;9.50;99.90
42333;DHT22;27984;51.476;5.702;2023-02-19T07:36:33;9.50;99.90
42333;DHT22;27984;51.476;5.702;2023-02-19T07:38:59;9.50;99.90
42333;DHT22;27984;51.476;5.702;2023-02-19T07:41:24;9.50;99.90
42333;DHT22;27984;51.476;5.702;2023-02-19T07:43:50;9.50;99.90
42333;DHT22;27984;51.476;5.702;2023-02-19T07:46:17;9.50;99.90
42333;DHT22;27984;51.476;5.702;2023-02-19T07:48:42;9.60;99.90
42333;DHT22;27984;51.476;5.702;2023-02-19T07:51:14;9.50;99.90
42333;DHT22;27984;51.476;5.702;2023-02-19T07:53:43;9.50;99.90
42333;DHT22;27984;51.476;5.702;2023-02-19T07:56:09;9.50;99.90
42333;DHT22;27984;51.476;5.702;2023-02-19T07:58:35;9.40;99.90
42333;DHT22;27984;51.476;5.702;2023-02-19T08:04:14;9.40;99.90
42333;DHT22;27984;51.476;5.702;2023-02-19T08:06:40;9.40;99.90
42333;DHT22;27984;51.476;5.702;2023-02-19T08:09:06;9.40;99.90
42333;DHT22;27984;51.476;5.702;2023-02-19T08:11:31;9.30;99.90
42333;DHT22;27984;51.476;5.702;2023-02-19T08:14:15;9.40;99.90
42333;DHT22;27984;51.476;5.702;2023-02-19T08:16:50;9.40;99.90
42333;DHT22;27984;51.476;5.702;2023-02-19T08:19:15;9.40;99.90
42333;DHT22;27984;51.476;5.702;2023-02-19T08:21:41;9.40;99.90
42333;DHT22;27984;51.476;5.702;2023-02-19T08:24:06;9.40;99.90
42333;DHT22;27984;51.476;5.702;2023-02-19T08:26:32;9.40;99.90
42333;DHT22;27984;51.476;5.702;2023-02-19T08:28:57;9.40;99.90
42333;DHT22;27984;51.476;5.702;2023-02-19T08:31:23;9.40;99.90
42333;DHT22;27984;51.476;5.702;2023-02-19T08:33:49;9.40;99.90
42333;DHT22;27984;51.476;5.702;2023-02-19T08:36:14;9.50;99.90
42333;DHT22;27984;51.476;5.702;2023-02-19T08:38:40;9.50;99.90
42333;DHT22;27984;51.476;5.702;2023-02-19T08:41:05;9.50;99.90
42333;DHT22;27984;51.476;5.702;2023-02-19T08:43:31;9.50;99.90
42333;DHT22;27984;51.476;5.702;2023-02-19T08:45:57;9.50;99.90
42333;DHT22;27984;51.476;5.702;2023-02-19T08:48:22;9.60;99.90
42333;DHT22;27984;51.476;5.702;2023-02-19T08:50:58;9.70;99.90
42333;DHT22;27984;51.476;5.702;2023-02-19T08:53:24;9.70;99.90
42333;DHT22;27984;51.476;5.702;2023-02-19T08:55:50;9.70;99.90
42333;DHT22;27984;51.476;5.702;2023-02-19T08:58:16;9.80;99.90
42333;DHT22;27984;51.476;5.702;2023-02-19T09:00:41;9.80;99.90
42333;DHT22;27984;51.476;5.702;2023-02-19T09:03:10;9.90;99.90
42333;DHT22;27984;51.476;5.702;2023-02-19T09:05:36;9.90;99.90
42333;DHT22;27984;51.476;5.702;2023-02-19T09:08:02;10.00;99.90
42333;DHT22;27984;51.476;5.702;2023-02-19T09:10:27;10.00;99.90
42333;DHT22;27984;51.476;5.702;2023-02-19T09:12:52;10.00;99.90
42333;DHT22;27984;51.476;5.702;2023-02-19T09:15:18;10.00;99.90
42333;DHT22;27984;51.476;5.702;2023-02-19T09:17:43;10.00;99.90
42333;DHT22;27984;51.476;5.702;2023-02-19T09:20:09;9.90;99.90
42333;DHT22;27984;51.476;5.702;2023-02-19T09:22:35;10.00;99.90
42333;DHT22;27984;51.476;5.702;2023-02-19T09:25:01;10.10;99.90
42333;DHT22;27984;51.476;5.702;2023-02-19T09:27:26;10.20;99.90
42333;DHT22;27984;51.476;5.702;2023-02-19T09:29:52;10.20;99.90
42333;DHT22;27984;51.476;5.702;2023-02-19T09:32:18;10.20;99.90
42333;DHT22;27984;51.476;5.702;2023-02-19T09:34:44;10.30;99.90
42333;DHT22;27984;51.476;5.702;2023-02-19T09:37:09;10.30;99.90
42333;DHT22;27984;51.476;5.702;2023-02-19T09:39:35;10.50;99.90
42333;DHT22;27984;51.476;5.702;2023-02-19T09:44:36;10.60;99.90
42333;DHT22;27984;51.476;5.702;2023-02-19T09:47:05;10.60;99.90
42333;DHT22;27984;51.476;5.702;2023-02-19T09:49:33;10.90;99.90
42333;DHT22;27984;51.476;5.702;2023-02-19T09:52:04;11.00;99.90
42333;DHT22;27984;51.476;5.702;2023-02-19T09:54:30;11.00;99.90
42333;DHT22;27984;51.476;5.702;2023-02-19T09:56:56;11.00;99.90
42333;DHT22;27984;51.476;5.702;2023-02-19T09:59:25;11.00;99.90
42333;DHT22;27984;51.476;5.702;2023-02-19T10:01:54;11.00;99.90
42333;DHT22;27984;51.476;5.702;2023-02-19T10:04:21;11.00;99.90
42333;DHT22;27984;51.476;5.702;2023-02-19T10:06:47;10.90;99.90
42333;DHT22;27984;51.476;5.702;2023-02-19T10:09:23;10.80;99.90
42333;DHT22;27984;51.476;5.702;2023-02-19T10:11:51;10.80;99.90
42333;DHT22;27984;51.476;5.702;2023-02-19T10:14:20;10.70;99.90
42333;DHT22;27984;51.476;5.702;2023-02-19T10:16:47;10.70;99.90
42333;DHT22;27984;51.476;5.702;2023-02-19T10:19:13;10.90;99.90
42333;DHT22;27984;51.476;5.702;2023-02-19T10:21:39;11.10;99.90
42333;DHT22;27984;51.476;5.702;2023-02-19T10:24:05;11.20;99.90
42333;DHT22;27984;51.476;5.702;2023-02-19T10:26:31;11.20;99.90
42333;DHT22;27984;51.476;5.702;2023-02-19T10:29:04;11.10;99.90
42333;DHT22;27984;51.476;5.702;2023-02-19T10:31:30;11.10;99.90
42333;DHT22;27984;51.476;5.702;2023-02-19T10:33:57;11.00;99.90
42333;DHT22;27984;51.476;5.702;2023-02-19T10:38:53;11.20;99.90
42333;DHT22;27984;51.476;5.702;2023-02-19T10:41:19;11.30;99.90
42333;DHT22;27984;51.476;5.702;2023-02-19T10:43:53;11.30;99.90
42333;DHT22;27984;51.476;5.702;2023-02-19T10:46:27;11.50;99.90
42333;DHT22;27984;51.476;5.702;2023-02-19T10:48:54;11.60;99.90
42333;DHT22;27984;51.476;5.702;2023-02-19T10:51:21;11.50;99.90
42333;DHT22;27984;51.476;5.702;2023-02-19T10:54:02;11.50;99.90
42333;DHT22;27984;51.476;5.702;2023-02-19T10:56:28;11.50;99.90
42333;DHT22;27984;51.476;5.702;2023-02-19T10:59:14;11.50;99.90
42333;DHT22;27984;51.476;5.702;2023-02-19T11:04:21;11.80;99.90
42333;DHT22;27984;51.476;5.702;2023-02-19T11:06:47;12.10;99.90
42333;DHT22;27984;51.476;5.702;2023-02-19T11:09:47;12.00;99.90
42333;DHT22;27984;51.476;5.702;2023-02-19T11:12:04;11.70;99.90
42333;DHT22;27984;51.476;5.702;2023-02-19T11:14:30;11.50;99.90
42333;DHT22;27984;51.476;5.702;2023-02-19T11:16:58;11.50;99.90
42333;DHT22;27984;51.476;5.702;2023-02-19T11:19:25;11.30;99.90
42333;DHT22;27984;51.476;5.702;2023-02-19T11:21:52;11.40;99.90
42333;DHT22;27984;51.476;5.702;2023-02-19T11:24:25;11.30;99.90
42333;DHT22;27984;51.476;5.702;2023-02-19T11:26:52;11.30;99.90
42333;DHT22;27984;51.476;5.702;2023-02-19T11:29:19;11.30;99.90
42333;DHT22;27984;51.476;5.702;2023-02-19T11:31:47;11.30;99.90
42333;DHT22;27984;51.476;5.702;2023-02-19T11:36:38;11.10;99.90
42333;DHT22;27984;51.476;5.702;2023-02-19T11:41:49;11.10;99.90
42333;DHT22;27984;51.476;5.702;2023-02-19T11:54:42;11.70;99.90
42333;DHT22;27984;51.476;5.702;2023-02-19T11:57:19;11.90;99.90
42333;DHT22;27984;51.476;5.702;2023-02-19T11:59:52;11.90;99.90
42333;DHT22;27984;51.476;5.702;2023-02-19T12:16:13;12.20;99.90
42333;DHT22;27984;51.476;5.702;2023-02-19T12:18:51;12.00;99.90
42333;DHT22;27984;51.476;5.702;2023-02-19T12:44:13;11.70;99.90
42333;DHT22;27984;51.476;5.702;2023-02-19T12:46:43;11.70;99.90
42333;DHT22;27984;51.476;5.702;2023-02-19T12:51:49;12.20;99.90
42333;DHT22;27984;51.476;5.702;2023-02-19T12:54:24;12.20;99.90
42333;DHT22;27984;51.476;5.702;2023-02-19T12:56:54;12.30;99.90
42333;DHT22;27984;51.476;5.702;2023-02-19T13:01:49;12.40;99.90
42333;DHT22;27984;51.476;5.702;2023-02-19T13:07:04;12.10;99.90
42333;DHT22;27984;51.476;5.702;2023-02-19T13:14:47;12.50;99.90
42333;DHT22;27984;51.476;5.702;2023-02-19T13:17:27;12.70;99.90
42333;DHT22;27984;51.476;5.702;2023-02-19T13:20:01;12.70;99.90
42333;DHT22;27984;51.476;5.702;2023-02-19T13:25:11;12.40;99.90
42333;DHT22;27984;51.476;5.702;2023-02-19T13:27:45;12.20;99.90
42333;DHT22;27984;51.476;5.702;2023-02-19T13:33:19;11.60;99.90
42333;DHT22;27984;51.476;5.702;2023-02-19T13:38:25;11.20;99.90
42333;DHT22;27984;51.476;5.702;2023-02-19T13:40:52;11.20;99.90
42333;DHT22;27984;51.476;5.702;2023-02-19T13:43:25;11.20;99.90
42333;DHT22;27984;51.476;5.702;2023-02-19T13:45:59;11.20;99.90
42333;DHT22;27984;51.476;5.702;2023-02-19T13:48:30;11.40;99.90
42333;DHT22;27984;51.476;5.702;2023-02-19T13:59:11;11.20;99.90
42333;DHT22;27984;51.476;5.702;2023-02-19T14:04:19;11.30;99.90
42333;DHT22;27984;51.476;5.702;2023-02-19T14:07:18;11.30;99.90
42333;DHT22;27984;51.476;5.702;2023-02-19T14:14:35;11.10;99.90
42333;DHT22;27984;51.476;5.702;2023-02-19T14:25:13;10.70;99.90
42333;DHT22;27984;51.476;5.702;2023-02-19T14:27:42;10.60;99.90
42333;DHT22;27984;51.476;5.702;2023-02-19T14:30:09;10.60;99.90
42333;DHT22;27984;51.476;5.702;2023-02-19T14:32:37;10.50;99.90
42333;DHT22;27984;51.476;5.702;2023-02-19T14:35:03;10.40;99.90
42333;DHT22;27984;51.476;5.702;2023-02-19T14:37:29;10.40;99.90
42333;DHT22;27984;51.476;5.702;2023-02-19T14:39:54;10.30;99.90
42333;DHT22;27984;51.476;5.702;2023-02-19T14:42:22;10.30;99.90
42333;DHT22;27984;51.476;5.702;2023-02-19T14:44:55;10.30;99.90
42333;DHT22;27984;51.476;5.702;2023-02-19T14:47:22;10.20;99.90
42333;DHT22;27984;51.476;5.702;2023-02-19T14:49:49;10.20;99.90
42333;DHT22;27984;51.476;5.702;2023-02-19T14:52:23;10.20;99.90
42333;DHT22;27984;51.476;5.702;2023-02-19T14:54:51;10.10;99.90
42333;DHT22;27984;51.476;5.702;2023-02-19T14:57:28;10.00;99.90
42333;DHT22;27984;51.476;5.702;2023-02-19T14:59:54;10.00;99.90
42333;DHT22;27984;51.476;5.702;2023-02-19T15:02:22;9.90;99.90
42333;DHT22;27984;51.476;5.702;2023-02-19T15:04:50;9.80;99.90
42333;DHT22;27984;51.476;5.702;2023-02-19T15:07:20;9.80;99.90
42333;DHT22;27984;51.476;5.702;2023-02-19T15:09:49;9.80;99.90
42333;DHT22;27984;51.476;5.702;2023-02-19T15:12:22;9.80;99.90
42333;DHT22;27984;51.476;5.702;2023-02-19T15:14:49;9.80;99.90
42333;DHT22;27984;51.476;5.702;2023-02-19T15:17:21;9.80;99.90
42333;DHT22;27984;51.476;5.702;2023-02-19T15:19:49;9.80;99.90
42333;DHT22;27984;51.476;5.702;2023-02-19T15:22:19;9.90;99.90
42333;DHT22;27984;51.476;5.702;2023-02-19T15:24:45;9.80;99.90
42333;DHT22;27984;51.476;5.702;2023-02-19T15:27:21;9.80;99.90
42333;DHT22;27984;51.476;5.702;2023-02-19T15:29:48;9.70;99.90
42333;DHT22;27984;51.476;5.702;2023-02-19T15:32:20;9.60;99.90
42333;DHT22;27984;51.476;5.702;2023-02-19T15:34:57;9.50;99.90
42333;DHT22;27984;51.476;5.702;2023-02-19T15:37:23;9.50;99.90
42333;DHT22;27984;51.476;5.702;2023-02-19T15:39:50;9.50;99.90
42333;DHT22;27984;51.476;5.702;2023-02-19T15:42:27;9.40;99.90
42333;DHT22;27984;51.476;5.702;2023-02-19T15:45:06;9.40;99.90
42333;DHT22;27984;51.476;5.702;2023-02-19T15:47:50;9.50;99.90
42333;DHT22;27984;51.476;5.702;2023-02-19T15:50:27;9.50;99.90
42333;DHT22;27984;51.476;5.702;2023-02-19T15:52:55;9.50;99.90
42333;DHT22;27984;51.476;5.702;2023-02-19T15:57:53;9.50;99.90
42333;DHT22;27984;51.476;5.702;2023-02-19T16:00:34;9.50;99.90
42333;DHT22;27984;51.476;5.702;2023-02-19T16:03:00;9.40;99.90
42333;DHT22;27984;51.476;5.702;2023-02-19T16:05:26;9.50;99.90
42333;DHT22;27984;51.476;5.702;2023-02-19T16:08:05;9.40;99.90
42333;DHT22;27984;51.476;5.702;2023-02-19T16:10:31;9.50;99.90
42333;DHT22;27984;51.476;5.702;2023-02-19T16:13:00;9.50;99.90
42333;DHT22;27984;51.476;5.702;2023-02-19T16:15:27;9.50;99.90
42333;DHT22;27984;51.476;5.702;2023-02-19T16:17:53;9.40;99.90
42333;DHT22;27984;51.476;5.702;2023-02-19T16:20:20;9.30;99.90
42333;DHT22;27984;51.476;5.702;2023-02-19T16:22:46;9.30;99.90
42333;DHT22;27984;51.476;5.702;2023-02-19T16:28:21;9.30;99.90
42333;DHT22;27984;51.476;5.702;2023-02-19T16:30:55;9.20;99.90
42333;DHT22;27984;51.476;5.702;2023-02-19T16:33:34;9.20;99.90
42333;DHT22;27984;51.476;5.702;2023-02-19T16:41:25;9.20;99.90
42333;DHT22;27984;51.476;5.702;2023-02-19T16:43:50;9.10;99.90
42333;DHT22;27984;51.476;5.702;2023-02-19T16:46:16;9.10;99.90
42333;DHT22;27984;51.476;5.702;2023-02-19T16:48:41;9.00;99.90
42333;DHT22;27984;51.476;5.702;2023-02-19T16:51:07;9.00;99.90
42333;DHT22;27984;51.476;5.702;2023-02-19T16:53:33;9.10;99.90
42333;DHT22;27984;51.476;5.702;2023-02-19T16:55:58;9.00;99.90
42333;DHT22;27984;51.476;5.702;2023-02-19T16:58:24;8.90;99.90
42333;DHT22;27984;51.476;5.702;2023-02-19T17:00:50;8.80;99.90
42333;DHT22;27984;51.476;5.702;2023-02-19T17:03:19;8.90;99.90
42333;DHT22;27984;51.476;5.702;2023-02-19T17:05:45;8.80;99.90
42333;DHT22;27984;51.476;5.702;2023-02-19T17:10:45;8.70;99.90
42333;DHT22;27984;51.476;5.702;2023-02-19T17:13:11;8.60;99.90
42333;DHT22;27984;51.476;5.702;2023-02-19T17:15:36;8.60;99.90
42333;DHT22;27984;51.476;5.702;2023-02-19T17:18:02;8.50;99.90
42333;DHT22;27984;51.476;5.702;2023-02-19T17:20:28;8.50;99.90
42333;DHT22;27984;51.476;5.702;2023-02-19T17:22:54;8.50;99.90
42333;DHT22;27984;51.476;5.702;2023-02-19T17:25:19;8.50;99.90
42333;DHT22;27984;51.476;5.702;2023-02-19T17:27:45;8.60;99.90
42333;DHT22;27984;51.476;5.702;2023-02-19T17:30:23;8.40;99.90
42333;DHT22;27984;51.476;5.702;2023-02-19T17:32:50;8.50;99.90
42333;DHT22;27984;51.476;5.702;2023-02-19T17:35:15;8.50;99.90
42333;DHT22;27984;51.476;5.702;2023-02-19T17:37:41;8.50;99.90
42333;DHT22;27984;51.476;5.702;2023-02-19T17:40:26;8.50;99.90
42333;DHT22;27984;51.476;5.702;2023-02-19T17:42:51;8.50;99.90
42333;DHT22;27984;51.476;5.702;2023-02-19T17:45:17;8.60;99.90
42333;DHT22;27984;51.476;5.702;2023-02-19T17:47:42;8.50;99.90
42333;DHT22;27984;51.476;5.702;2023-02-19T17:50:16;8.50;99.90
42333;DHT22;27984;51.476;5.702;2023-02-19T17:52:42;8.40;99.90
42333;DHT22;27984;51.476;5.702;2023-02-19T17:55:08;8.50;99.90
42333;DHT22;27984;51.476;5.702;2023-02-19T17:57:33;8.50;99.90
42333;DHT22;27984;51.476;5.702;2023-02-19T17:59:59;8.40;99.90
42333;DHT22;27984;51.476;5.702;2023-02-19T18:02:25;8.40;99.90
42333;DHT22;27984;51.476;5.702;2023-02-19T18:04:50;8.50;99.90
42333;DHT22;27984;51.476;5.702;2023-02-19T18:07:16;8.50;99.90
42333;DHT22;27984;51.476;5.702;2023-02-19T18:09:41;8.40;99.90
42333;DHT22;27984;51.476;5.702;2023-02-19T18:12:07;8.50;99.90